Etusivu
METAR-TAF:

METAR-TAF

Lentoasemat :

Xiamen, Kiina

Leveyspiiri: 24-29N, Pituuspiiri: 118-05E, korkeus merenpinnasta: 139 m

Tämänhetkinen sää

Tämä raportti tehtiin 1 tunti ja 18 minuuttia sitten, kello 01.00 UTC
Tuuli 2 kn eri suunnista
Lämpötila 18°C
Kosteus 68%
Ilmanpaine 1025 hPa
Näkyvyys: 5000 m
Hajonneita pilviä 3000 ft:n korkeudessa

METAR: ZSAM 140100Z VRB01MPS 5000 BKN030 18/12 Q1025 NOSIG

Aika: 10:18 (02:18 UTC)

Sääennuste

Tämä raportti tehtiin 7 tuntia ja 14 minuuttia sitten, kello 19.04 UTC
Ennuste voimassa 14. päivästä klo 00 UTC - 14. päivään klo 24 UTC
Tuuli 8 kn idästä puuskistuen 17 kn:hen
Näkyvyys: 6000 m
Muutamia pilviä 4000 ft:n korkeudessa

TAF: ZSAM 131904Z 1400/1424 10004G09MPS 6000 FEW040 TX23/1406Z TN12/1421Z

Säähavainnot ja -ennusteet yli 4000 lentoasemalta (METAR- ja TAF-raportit).

Käytössä olevat sääasemat on merkitty karttaan keltaisilla ja punaisilla pisteillä.

Aseta hiiri pisteen päälle nähdäksesi sääaseman nimen.

Klikkaa sitten nähdäksesi säähavainnot ja -ennusteet.

Kartan vaihtaminen: klikkaa mustalla rastilla varustettuja vihreitä pisteitä, niin voit zoomata sisään; viivalla varustettua vihreää pistettä, niin voit zoomata ulos tai vihreitä nuolia, niin pääset viereisille kartoille.


METAR-TAF: